sensor_id;sensor_type;location;lat;lon;timestamp;pressure;altitude;pressure_sealevel;temperature;humidity
71976;BME280;60680;52.182;5.398;2022-07-29T00:02:24;101852.19;;;17.91;57.80
71976;BME280;60680;52.182;5.398;2022-07-29T00:04:51;101843.25;;;17.94;58.51
71976;BME280;60680;52.182;5.398;2022-07-29T00:07:18;101840.78;;;17.91;57.81
71976;BME280;60680;52.182;5.398;2022-07-29T00:09:44;101848.69;;;17.91;58.04
71976;BME280;60680;52.182;5.398;2022-07-29T00:12:20;101845.53;;;17.86;58.12
71976;BME280;60680;52.182;5.398;2022-07-29T00:14:55;101839.50;;;17.84;58.14
71976;BME280;60680;52.182;5.398;2022-07-29T00:17:23;101842.16;;;17.69;58.52
71976;BME280;60680;52.182;5.398;2022-07-29T00:19:50;101829.00;;;17.69;58.83
71976;BME280;60680;52.182;5.398;2022-07-29T00:22:16;101832.59;;;17.68;58.60
71976;BME280;60680;52.182;5.398;2022-07-29T00:24:43;101836.53;;;17.61;59.21
71976;BME280;60680;52.182;5.398;2022-07-29T00:27:11;101828.47;;;17.64;59.21
71976;BME280;60680;52.182;5.398;2022-07-29T00:29:38;101825.00;;;17.64;58.93
71976;BME280;60680;52.182;5.398;2022-07-29T00:32:04;101820.44;;;17.66;59.18
71976;BME280;60680;52.182;5.398;2022-07-29T00:34:31;101808.31;;;17.63;58.83
71976;BME280;60680;52.182;5.398;2022-07-29T00:37:16;101811.56;;;17.54;59.71
71976;BME280;60680;52.182;5.398;2022-07-29T00:39:43;101809.59;;;17.58;59.42
71976;BME280;60680;52.182;5.398;2022-07-29T00:42:09;101803.84;;;17.51;59.21
71976;BME280;60680;52.182;5.398;2022-07-29T00:44:39;101801.03;;;17.54;59.08
71976;BME280;60680;52.182;5.398;2022-07-29T00:47:07;101806.09;;;17.57;59.48
71976;BME280;60680;52.182;5.398;2022-07-29T00:49:34;101798.41;;;17.54;59.35
71976;BME280;60680;52.182;5.398;2022-07-29T00:52:02;101802.84;;;17.53;59.14
71976;BME280;60680;52.182;5.398;2022-07-29T00:54:29;101800.50;;;17.49;59.51
71976;BME280;60680;52.182;5.398;2022-07-29T00:56:58;101803.13;;;17.49;58.92
71976;BME280;60680;52.182;5.398;2022-07-29T00:59:26;101800.28;;;17.52;59.08
71976;BME280;60680;52.182;5.398;2022-07-29T01:02:04;101800.28;;;17.52;59.65
71976;BME280;60680;52.182;5.398;2022-07-29T01:04:31;101800.03;;;17.42;59.59
71976;BME280;60680;52.182;5.398;2022-07-29T01:06:58;101799.19;;;17.42;59.28
71976;BME280;60680;52.182;5.398;2022-07-29T01:09:27;101796.56;;;17.42;59.44
71976;BME280;60680;52.182;5.398;2022-07-29T01:12:17;101794.97;;;17.39;59.88
71976;BME280;60680;52.182;5.398;2022-07-29T01:14:45;101789.56;;;17.28;59.32
71976;BME280;60680;52.182;5.398;2022-07-29T01:17:33;101789.78;;;17.38;59.53
71976;BME280;60680;52.182;5.398;2022-07-29T01:23:12;101782.28;;;17.31;59.28
71976;BME280;60680;52.182;5.398;2022-07-29T01:31:11;101771.53;;;17.22;59.72
71976;BME280;60680;52.182;5.398;2022-07-29T01:33:56;101775.38;;;17.16;59.99
71976;BME280;60680;52.182;5.398;2022-07-29T01:36:45;101776.13;;;17.18;59.88
71976;BME280;60680;52.182;5.398;2022-07-29T01:39:24;101779.34;;;17.09;60.24
71976;BME280;60680;52.182;5.398;2022-07-29T01:47:15;101779.16;;;16.98;60.52
71976;BME280;60680;52.182;5.398;2022-07-29T01:49:50;101777.28;;;17.00;59.97
71976;BME280;60680;52.182;5.398;2022-07-29T01:52:24;101785.00;;;17.03;60.61
71976;BME280;60680;52.182;5.398;2022-07-29T01:54:55;101781.53;;;17.02;60.40
71976;BME280;60680;52.182;5.398;2022-07-29T01:57:29;101777.19;;;17.01;60.26
71976;BME280;60680;52.182;5.398;2022-07-29T01:59:59;101780.66;;;17.02;60.74
71976;BME280;60680;52.182;5.398;2022-07-29T02:02:28;101781.53;;;17.02;60.35
71976;BME280;60680;52.182;5.398;2022-07-29T02:04:57;101779.81;;;17.01;60.40
71976;BME280;60680;52.182;5.398;2022-07-29T02:07:24;101777.50;;;16.97;60.68
71976;BME280;60680;52.182;5.398;2022-07-29T02:09:52;101777.41;;;16.98;60.00
71976;BME280;60680;52.182;5.398;2022-07-29T02:12:21;101777.50;;;16.97;60.22
71976;BME280;60680;52.182;5.398;2022-07-29T02:14:50;101774.84;;;16.97;60.61
71976;BME280;60680;52.182;5.398;2022-07-29T02:17:27;101780.50;;;16.90;60.54
71976;BME280;60680;52.182;5.398;2022-07-29T02:20:00;101779.06;;;16.85;60.24
71976;BME280;60680;52.182;5.398;2022-07-29T02:22:29;101788.59;;;16.87;61.19
71976;BME280;60680;52.182;5.398;2022-07-29T02:24:58;101778.44;;;16.81;61.23
71976;BME280;60680;52.182;5.398;2022-07-29T02:27:26;101778.81;;;16.89;60.88
71976;BME280;60680;52.182;5.398;2022-07-29T02:29:56;101773.66;;;16.88;61.50
71976;BME280;60680;52.182;5.398;2022-07-29T02:32:25;101779.75;;;16.88;61.41
71976;BME280;60680;52.182;5.398;2022-07-29T02:34:53;101777.19;;;16.87;61.45
71976;BME280;60680;52.182;5.398;2022-07-29T02:37:23;101773.56;;;16.89;61.01
71976;BME280;60680;52.182;5.398;2022-07-29T02:39:52;101767.44;;;16.89;60.45
71976;BME280;60680;52.182;5.398;2022-07-29T02:42:21;101769.22;;;16.88;60.84
71976;BME280;60680;52.182;5.398;2022-07-29T02:44:49;101761.03;;;16.79;60.93
71976;BME280;60680;52.182;5.398;2022-07-29T02:47:20;101758.59;;;16.76;61.13
71976;BME280;60680;52.182;5.398;2022-07-29T02:50:07;101767.31;;;16.76;61.38
71976;BME280;60680;52.182;5.398;2022-07-29T02:52:44;101766.56;;;16.74;61.38
71976;BME280;60680;52.182;5.398;2022-07-29T02:55:56;101770.63;;;16.80;61.28
71976;BME280;60680;52.182;5.398;2022-07-29T02:58:34;101765.66;;;16.75;61.62
71976;BME280;60680;52.182;5.398;2022-07-29T03:01:22;101763.59;;;16.80;61.62
71976;BME280;60680;52.182;5.398;2022-07-29T03:03:51;101767.44;;;16.75;61.70
71976;BME280;60680;52.182;5.398;2022-07-29T03:06:20;101755.31;;;16.72;61.83
71976;BME280;60680;52.182;5.398;2022-07-29T03:09:05;101762.25;;;16.73;61.75
71976;BME280;60680;52.182;5.398;2022-07-29T03:11:39;101756.25;;;16.71;61.50
71976;BME280;60680;52.182;5.398;2022-07-29T03:14:19;101760.69;;;16.70;61.83
71976;BME280;60680;52.182;5.398;2022-07-29T03:16:47;101758.97;;;16.69;61.82
71976;BME280;60680;52.182;5.398;2022-07-29T03:19:14;101755.78;;;16.64;61.62
71976;BME280;60680;52.182;5.398;2022-07-29T03:21:41;101754.94;;;16.49;61.60
71976;BME280;60680;52.182;5.398;2022-07-29T03:24:08;101754.06;;;16.49;61.88
71976;BME280;60680;52.182;5.398;2022-07-29T03:26:36;101759.72;;;16.43;62.61
71976;BME280;60680;52.182;5.398;2022-07-29T03:29:02;101755.22;;;16.45;62.03
71976;BME280;60680;52.182;5.398;2022-07-29T03:31:29;101748.00;;;16.48;61.97
71976;BME280;60680;52.182;5.398;2022-07-29T03:33:56;101743.84;;;16.44;62.40
71976;BME280;60680;52.182;5.398;2022-07-29T03:36:23;101744.44;;;16.49;62.63
71976;BME280;60680;52.182;5.398;2022-07-29T03:38:50;101739.28;;;16.48;62.63
71976;BME280;60680;52.182;5.398;2022-07-29T03:41:18;101740.22;;;16.47;62.94
71976;BME280;60680;52.182;5.398;2022-07-29T03:43:49;101740.31;;;16.45;62.43
71976;BME280;60680;52.182;5.398;2022-07-29T03:46:16;101738.59;;;16.44;62.46
71976;BME280;60680;52.182;5.398;2022-07-29T03:48:48;101730.91;;;16.41;62.75
71976;BME280;60680;52.182;5.398;2022-07-29T03:51:16;101729.13;;;16.42;62.95
71976;BME280;60680;52.182;5.398;2022-07-29T03:53:43;101732.78;;;16.39;62.70
71976;BME280;60680;52.182;5.398;2022-07-29T03:56:10;101729.50;;;16.36;63.31
71976;BME280;60680;52.182;5.398;2022-07-29T03:58:38;101735.69;;;16.35;63.01
71976;BME280;60680;52.182;5.398;2022-07-29T04:01:05;101731.28;;;16.35;62.44
71976;BME280;60680;52.182;5.398;2022-07-29T04:03:32;101733.38;;;16.30;62.75
71976;BME280;60680;52.182;5.398;2022-07-29T04:06:05;101724.63;;;16.29;62.76
71976;BME280;60680;52.182;5.398;2022-07-29T04:08:33;101727.44;;;16.26;62.90
71976;BME280;60680;52.182;5.398;2022-07-29T04:11:00;101731.34;;;16.19;63.07
71976;BME280;60680;52.182;5.398;2022-07-29T04:13:27;101729.00;;;16.15;62.99
71976;BME280;60680;52.182;5.398;2022-07-29T04:15:54;101728.91;;;16.16;63.21
71976;BME280;60680;52.182;5.398;2022-07-29T04:18:20;101727.88;;;16.19;63.25
71976;BME280;60680;52.182;5.398;2022-07-29T04:20:47;101734.47;;;16.26;63.04
71976;BME280;60680;52.182;5.398;2022-07-29T04:23:14;101732.09;;;16.21;63.09
71976;BME280;60680;52.182;5.398;2022-07-29T04:25:41;101727.88;;;16.19;63.46
71976;BME280;60680;52.182;5.398;2022-07-29T04:28:09;101733.91;;;16.21;63.69
71976;BME280;60680;52.182;5.398;2022-07-29T04:30:36;101729.47;;;16.21;63.99
71976;BME280;60680;52.182;5.398;2022-07-29T04:33:05;101729.97;;;16.14;64.15
71976;BME280;60680;52.182;5.398;2022-07-29T04:35:37;101728.09;;;16.16;63.82
71976;BME280;60680;52.182;5.398;2022-07-29T04:38:15;101716.53;;;16.18;63.89
71976;BME280;60680;52.182;5.398;2022-07-29T04:40:42;101717.31;;;16.20;63.78
71976;BME280;60680;52.182;5.398;2022-07-29T04:43:09;101717.31;;;16.20;64.14
71976;BME280;60680;52.182;5.398;2022-07-29T04:45:37;101719.25;;;16.17;63.88
71976;BME280;60680;52.182;5.398;2022-07-29T04:48:04;101728.25;;;16.13;63.95
71976;BME280;60680;52.182;5.398;2022-07-29T04:50:31;101726.84;;;16.07;64.09
71976;BME280;60680;52.182;5.398;2022-07-29T04:52:58;101736.41;;;16.08;64.08
71976;BME280;60680;52.182;5.398;2022-07-29T04:55:24;101733.50;;;16.13;64.10
71976;BME280;60680;52.182;5.398;2022-07-29T04:57:51;101734.16;;;16.16;63.98
71976;BME280;60680;52.182;5.398;2022-07-29T05:00:18;101734.25;;;16.15;63.79
71976;BME280;60680;52.182;5.398;2022-07-29T05:02:44;101735.22;;;16.14;64.45
71976;BME280;60680;52.182;5.398;2022-07-29T05:05:11;101734.25;;;16.15;64.16
71976;BME280;60680;52.182;5.398;2022-07-29T05:07:40;101729.75;;;16.17;63.80
71976;BME280;60680;52.182;5.398;2022-07-29T05:10:07;101735.88;;;16.17;63.56
71976;BME280;60680;52.182;5.398;2022-07-29T05:12:34;101729.97;;;16.14;64.04
71976;BME280;60680;52.182;5.398;2022-07-29T05:15:01;101737.06;;;16.12;63.68
71976;BME280;60680;52.182;5.398;2022-07-29T05:17:27;101730.13;;;16.10;63.88
71976;BME280;60680;52.182;5.398;2022-07-29T05:19:54;101731.63;;;16.15;64.01
71976;BME280;60680;52.182;5.398;2022-07-29T05:22:21;101729.88;;;16.15;63.85
71976;BME280;60680;52.182;5.398;2022-07-29T05:24:47;101737.91;;;16.12;64.00
71976;BME280;60680;52.182;5.398;2022-07-29T05:27:14;101738.00;;;16.10;64.08
71976;BME280;60680;52.182;5.398;2022-07-29T05:29:41;101740.91;;;16.06;63.55
71976;BME280;60680;52.182;5.398;2022-07-29T05:32:10;101738.94;;;16.09;64.14
71976;BME280;60680;52.182;5.398;2022-07-29T05:34:37;101732.94;;;16.07;64.31
71976;BME280;60680;52.182;5.398;2022-07-29T05:37:16;101739.78;;;16.10;64.75
71976;BME280;60680;52.182;5.398;2022-07-29T05:39:43;101740.63;;;16.10;64.34
71976;BME280;60680;52.182;5.398;2022-07-29T05:42:16;101743.44;;;16.07;64.75
71976;BME280;60680;52.182;5.398;2022-07-29T05:44:42;101747.00;;;16.06;64.94
71976;BME280;60680;52.182;5.398;2022-07-29T05:47:09;101749.25;;;16.13;65.26
71976;BME280;60680;52.182;5.398;2022-07-29T05:49:35;101739.22;;;16.19;64.49
71976;BME280;60680;52.182;5.398;2022-07-29T05:52:02;101748.53;;;16.25;64.93
71976;BME280;60680;52.182;5.398;2022-07-29T05:54:29;101752.13;;;16.24;64.75
71976;BME280;60680;52.182;5.398;2022-07-29T05:56:56;101746.84;;;16.24;64.66
71976;BME280;60680;52.182;5.398;2022-07-29T05:59:22;101751.91;;;16.27;65.01
71976;BME280;60680;52.182;5.398;2022-07-29T06:01:55;101756.44;;;16.39;64.43
71976;BME280;60680;52.182;5.398;2022-07-29T06:04:23;101764.97;;;16.57;63.59
71976;BME280;60680;52.182;5.398;2022-07-29T06:06:50;101755.50;;;16.69;63.39
71976;BME280;60680;52.182;5.398;2022-07-29T06:09:17;101758.13;;;16.69;63.66
71976;BME280;60680;52.182;5.398;2022-07-29T06:11:43;101756.25;;;16.71;62.57
71976;BME280;60680;52.182;5.398;2022-07-29T06:14:10;101756.25;;;16.71;62.88
71976;BME280;60680;52.182;5.398;2022-07-29T06:16:36;101753.25;;;16.77;63.00
71976;BME280;60680;52.182;5.398;2022-07-29T06:19:03;101762.69;;;16.81;63.00
71976;BME280;60680;52.182;5.398;2022-07-29T06:21:30;101758.41;;;17.07;61.90
71976;BME280;60680;52.182;5.398;2022-07-29T06:23:57;101760.69;;;17.41;61.30
71976;BME280;60680;52.182;5.398;2022-07-29T06:26:23;101762.31;;;17.56;60.73
71976;BME280;60680;52.182;5.398;2022-07-29T06:28:57;101760.94;;;17.36;61.18
71976;BME280;60680;52.182;5.398;2022-07-29T06:31:23;101770.88;;;17.18;61.77
71976;BME280;60680;52.182;5.398;2022-07-29T06:33:50;101785.75;;;17.05;61.98
71976;BME280;60680;52.182;5.398;2022-07-29T06:36:20;101796.81;;;16.96;62.24
71976;BME280;60680;52.182;5.398;2022-07-29T06:38:50;101792.44;;;16.96;62.45
71976;BME280;60680;52.182;5.398;2022-07-29T06:41:17;101790.16;;;16.90;62.56
71976;BME280;60680;52.182;5.398;2022-07-29T06:43:45;101778.16;;;16.86;62.65
71976;BME280;60680;52.182;5.398;2022-07-29T06:46:22;101796.44;;;16.73;62.88
71976;BME280;60680;52.182;5.398;2022-07-29T06:48:57;101789.09;;;16.64;62.98
71976;BME280;60680;52.182;5.398;2022-07-29T06:51:23;101788.72;;;16.70;63.00
71976;BME280;60680;52.182;5.398;2022-07-29T06:53:51;101793.19;;;16.84;63.36
71976;BME280;60680;52.182;5.398;2022-07-29T06:56:27;101799.19;;;16.86;62.74
71976;BME280;60680;52.182;5.398;2022-07-29T06:58:55;101792.13;;;16.86;63.18
71976;BME280;60680;52.182;5.398;2022-07-29T07:01:23;101788.66;;;16.86;63.11
71976;BME280;60680;52.182;5.398;2022-07-29T07:03:49;101795.31;;;16.91;63.57
71976;BME280;60680;52.182;5.398;2022-07-29T07:06:16;101801.44;;;16.92;62.62
71976;BME280;60680;52.182;5.398;2022-07-29T07:08:43;101795.91;;;16.82;62.65
71976;BME280;60680;52.182;5.398;2022-07-29T07:11:10;101804.16;;;16.90;63.03
71976;BME280;60680;52.182;5.398;2022-07-29T07:13:36;101803.50;;;17.01;62.84
71976;BME280;60680;52.182;5.398;2022-07-29T07:16:03;101801.97;;;17.11;63.05
71976;BME280;60680;52.182;5.398;2022-07-29T07:18:30;101795.75;;;17.27;62.86
71976;BME280;60680;52.182;5.398;2022-07-29T07:20:57;101797.50;;;17.41;62.38
71976;BME280;60680;52.182;5.398;2022-07-29T07:23:24;101796.06;;;17.49;61.56
71976;BME280;60680;52.182;5.398;2022-07-29T07:25:52;101801.78;;;17.56;60.55
71976;BME280;60680;52.182;5.398;2022-07-29T07:28:19;101798.44;;;17.67;61.14
71976;BME280;60680;52.182;5.398;2022-07-29T07:30:50;101794.66;;;17.85;60.83
71976;BME280;60680;52.182;5.398;2022-07-29T07:33:17;101792.97;;;17.97;60.53
71976;BME280;60680;52.182;5.398;2022-07-29T07:35:43;101783.00;;;18.02;60.06
71976;BME280;60680;52.182;5.398;2022-07-29T07:38:10;101792.38;;;18.06;60.12
71976;BME280;60680;52.182;5.398;2022-07-29T07:40:37;101794.50;;;18.14;59.18
71976;BME280;60680;52.182;5.398;2022-07-29T07:43:03;101785.00;;;18.11;59.65
71976;BME280;60680;52.182;5.398;2022-07-29T07:45:30;101779.00;;;18.22;60.26
71976;BME280;60680;52.182;5.398;2022-07-29T07:47:59;101772.09;;;18.34;59.54
71976;BME280;60680;52.182;5.398;2022-07-29T07:50:26;101771.34;;;18.45;59.22
71976;BME280;60680;52.182;5.398;2022-07-29T07:52:54;101779.25;;;18.45;58.84
71976;BME280;60680;52.182;5.398;2022-07-29T07:55:25;101783.47;;;18.34;58.09
71976;BME280;60680;52.182;5.398;2022-07-29T07:57:52;101783.47;;;18.34;59.87
71976;BME280;60680;52.182;5.398;2022-07-29T08:00:19;101778.09;;;18.36;59.59
71976;BME280;60680;52.182;5.398;2022-07-29T08:02:49;101779.53;;;18.40;60.19
71976;BME280;60680;52.182;5.398;2022-07-29T08:05:17;101767.84;;;18.44;59.84
71976;BME280;60680;52.182;5.398;2022-07-29T08:07:45;101767.22;;;18.41;59.83
71976;BME280;60680;52.182;5.398;2022-07-29T08:10:17;101772.91;;;18.47;60.29
71976;BME280;60680;52.182;5.398;2022-07-29T08:13:06;101770.69;;;18.54;59.56
71976;BME280;60680;52.182;5.398;2022-07-29T08:15:33;101772.50;;;18.41;59.97
71976;BME280;60680;52.182;5.398;2022-07-29T08:18:00;101766.50;;;18.39;60.64
71976;BME280;60680;52.182;5.398;2022-07-29T08:20:34;101766.81;;;18.34;60.65
71976;BME280;60680;52.182;5.398;2022-07-29T08:23:02;101761.97;;;18.41;60.50
71976;BME280;60680;52.182;5.398;2022-07-29T08:25:29;101765.19;;;18.57;60.46
71976;BME280;60680;52.182;5.398;2022-07-29T08:27:56;101763.59;;;18.67;60.22
71976;BME280;60680;52.182;5.398;2022-07-29T08:30:25;101768.88;;;18.67;59.87
71976;BME280;60680;52.182;5.398;2022-07-29T08:32:52;101775.53;;;18.73;59.89
71976;BME280;60680;52.182;5.398;2022-07-29T08:35:22;101774.31;;;18.79;59.99
71976;BME280;60680;52.182;5.398;2022-07-29T08:37:50;101776.91;;;18.91;60.51
71976;BME280;60680;52.182;5.398;2022-07-29T08:40:17;101778.56;;;19.05;60.32
71976;BME280;60680;52.182;5.398;2022-07-29T08:42:44;101785.50;;;19.19;59.29
71976;BME280;60680;52.182;5.398;2022-07-29T08:45:10;101784.97;;;19.51;58.82
71976;BME280;60680;52.182;5.398;2022-07-29T08:47:38;101781.28;;;19.65;57.18
71976;BME280;60680;52.182;5.398;2022-07-29T08:50:09;101790.16;;;19.77;57.01
71976;BME280;60680;52.182;5.398;2022-07-29T08:52:38;101775.81;;;20.03;57.20
71976;BME280;60680;52.182;5.398;2022-07-29T08:55:09;101772.41;;;20.25;56.88
71976;BME280;60680;52.182;5.398;2022-07-29T08:57:38;101777.41;;;20.17;55.67
71976;BME280;60680;52.182;5.398;2022-07-29T09:00:17;101774.13;;;20.02;56.70
71976;BME280;60680;52.182;5.398;2022-07-29T09:02:47;101784.44;;;19.94;56.33
71976;BME280;60680;52.182;5.398;2022-07-29T09:05:18;101783.38;;;20.08;55.43
71976;BME280;60680;52.182;5.398;2022-07-29T09:07:45;101778.72;;;20.11;54.18
71976;BME280;60680;52.182;5.398;2022-07-29T09:10:14;101787.75;;;20.20;54.28
71976;BME280;60680;52.182;5.398;2022-07-29T09:12:41;101783.34;;;20.32;53.83
71976;BME280;60680;52.182;5.398;2022-07-29T09:15:08;101788.88;;;20.40;53.35
71976;BME280;60680;52.182;5.398;2022-07-29T09:17:48;101781.16;;;20.48;53.97
71976;BME280;60680;52.182;5.398;2022-07-29T09:20:18;101772.75;;;20.54;54.21
71976;BME280;60680;52.182;5.398;2022-07-29T09:22:46;101767.28;;;20.69;53.60
71976;BME280;60680;52.182;5.398;2022-07-29T09:28:10;101769.66;;;20.72;53.31
71976;BME280;60680;52.182;5.398;2022-07-29T09:30:54;101773.19;;;20.72;52.78
71976;BME280;60680;52.182;5.398;2022-07-29T09:33:22;101776.66;;;20.73;53.20
71976;BME280;60680;52.182;5.398;2022-07-29T09:36:11;101776.91;;;20.70;53.15
71976;BME280;60680;52.182;5.398;2022-07-29T09:38:38;101778.00;;;20.79;53.85
71976;BME280;60680;52.182;5.398;2022-07-29T09:41:05;101778.81;;;20.90;52.32
71976;BME280;60680;52.182;5.398;2022-07-29T09:43:34;101773.50;;;20.90;52.55
71976;BME280;60680;52.182;5.398;2022-07-29T09:46:11;101775.56;;;20.87;53.23
71976;BME280;60680;52.182;5.398;2022-07-29T09:48:38;101773.88;;;20.97;52.71
71976;BME280;60680;52.182;5.398;2022-07-29T09:51:16;101762.06;;;21.01;51.65
71976;BME280;60680;52.182;5.398;2022-07-29T09:53:47;101762.22;;;21.00;52.36
71976;BME280;60680;52.182;5.398;2022-07-29T09:56:14;101758.69;;;21.10;53.00
71976;BME280;60680;52.182;5.398;2022-07-29T09:58:40;101760.75;;;21.07;52.26
71976;BME280;60680;52.182;5.398;2022-07-29T10:01:07;101762.44;;;20.96;53.10
71976;BME280;60680;52.182;5.398;2022-07-29T10:03:50;101766.91;;;20.96;53.43
71976;BME280;60680;52.182;5.398;2022-07-29T10:06:17;101767.50;;;21.00;53.55
71976;BME280;60680;52.182;5.398;2022-07-29T10:08:44;101759.91;;;20.95;53.17
71976;BME280;60680;52.182;5.398;2022-07-29T10:11:17;101767.28;;;20.91;54.18
71976;BME280;60680;52.182;5.398;2022-07-29T10:13:46;101774.13;;;20.94;54.95
71976;BME280;60680;52.182;5.398;2022-07-29T10:16:14;101769.91;;;20.91;54.09
71976;BME280;60680;52.182;5.398;2022-07-29T10:18:42;101774.34;;;20.91;54.60
71976;BME280;60680;52.182;5.398;2022-07-29T10:21:10;101776.88;;;20.92;54.55
71976;BME280;60680;52.182;5.398;2022-07-29T10:24:03;101778.09;;;21.00;54.16
71976;BME280;60680;52.182;5.398;2022-07-29T10:26:40;101770.63;;;21.05;54.27
71976;BME280;60680;52.182;5.398;2022-07-29T10:29:07;101765.56;;;21.13;54.98
71976;BME280;60680;52.182;5.398;2022-07-29T10:37:38;101770.06;;;21.77;52.74
71976;BME280;60680;52.182;5.398;2022-07-29T10:40:21;101758.84;;;21.73;50.45
71976;BME280;60680;52.182;5.398;2022-07-29T10:43:27;101769.47;;;21.73;50.75
71976;BME280;60680;52.182;5.398;2022-07-29T10:45:59;101763.94;;;21.76;51.26
71976;BME280;60680;52.182;5.398;2022-07-29T10:48:29;101760.81;;;21.92;50.89
71976;BME280;60680;52.182;5.398;2022-07-29T10:51:03;101760.69;;;21.94;49.81
71976;BME280;60680;52.182;5.398;2022-07-29T10:53:49;101763.97;;;22.07;50.80
71976;BME280;60680;52.182;5.398;2022-07-29T10:56:36;101763.47;;;22.34;50.05
71976;BME280;60680;52.182;5.398;2022-07-29T11:01:48;101764.81;;;22.50;49.08
71976;BME280;60680;52.182;5.398;2022-07-29T11:07:11;101765.16;;;22.66;49.61
71976;BME280;60680;52.182;5.398;2022-07-29T11:09:40;101759.41;;;22.61;48.97
71976;BME280;60680;52.182;5.398;2022-07-29T11:15:06;101760.56;;;22.78;49.61
71976;BME280;60680;52.182;5.398;2022-07-29T11:23:19;101763.44;;;22.96;49.45
71976;BME280;60680;52.182;5.398;2022-07-29T11:26:19;101758.44;;;23.03;49.60
71976;BME280;60680;52.182;5.398;2022-07-29T11:29:03;101767.91;;;22.95;47.87
71976;BME280;60680;52.182;5.398;2022-07-29T11:31:38;101765.50;;;22.92;48.30
71976;BME280;60680;52.182;5.398;2022-07-29T11:34:24;101767.50;;;23.00;49.41
71976;BME280;60680;52.182;5.398;2022-07-29T11:45:21;101754.31;;;23.39;48.02
71976;BME280;60680;52.182;5.398;2022-07-29T11:48:15;101760.59;;;23.48;48.33
71976;BME280;60680;52.182;5.398;2022-07-29T11:50:57;101754.88;;;23.62;46.70
71976;BME280;60680;52.182;5.398;2022-07-29T11:53:24;101754.59;;;23.75;46.13
71976;BME280;60680;52.182;5.398;2022-07-29T11:55:55;101755.31;;;23.87;47.08
71976;BME280;60680;52.182;5.398;2022-07-29T11:58:23;101760.19;;;23.72;46.08
71976;BME280;60680;52.182;5.398;2022-07-29T12:00:52;101758.22;;;23.64;47.89
71976;BME280;60680;52.182;5.398;2022-07-29T12:03:26;101765.13;;;23.76;48.61
71976;BME280;60680;52.182;5.398;2022-07-29T12:06:02;101766.91;;;23.86;48.04
71976;BME280;60680;52.182;5.398;2022-07-29T12:08:29;101765.78;;;23.88;46.43
71976;BME280;60680;52.182;5.398;2022-07-29T12:10:55;101761.34;;;23.89;46.33
71976;BME280;60680;52.182;5.398;2022-07-29T12:13:22;101759.63;;;23.88;48.29
71976;BME280;60680;52.182;5.398;2022-07-29T12:16:03;101766.19;;;24.03;48.79
71976;BME280;60680;52.182;5.398;2022-07-29T12:18:30;101764.78;;;24.09;48.60
71976;BME280;60680;52.182;5.398;2022-07-29T12:21:01;101759.13;;;24.31;47.38
71976;BME280;60680;52.182;5.398;2022-07-29T12:23:31;101766.97;;;24.98;45.12
71976;BME280;60680;52.182;5.398;2022-07-29T12:26:03;101756.84;;;25.29;44.34
71976;BME280;60680;52.182;5.398;2022-07-29T12:28:37;101754.69;;;25.15;44.50
71976;BME280;60680;52.182;5.398;2022-07-29T12:31:04;101767.91;;;25.07;46.38
71976;BME280;60680;52.182;5.398;2022-07-29T12:33:31;101758.47;;;25.12;45.89
71976;BME280;60680;52.182;5.398;2022-07-29T12:35:59;101760.47;;;25.10;45.66
71976;BME280;60680;52.182;5.398;2022-07-29T12:38:42;101759.25;;;25.22;45.24
71976;BME280;60680;52.182;5.398;2022-07-29T12:41:10;101768.50;;;25.00;46.47
71976;BME280;60680;52.182;5.398;2022-07-29T12:43:36;101762.00;;;24.85;46.49
71976;BME280;60680;52.182;5.398;2022-07-29T12:46:14;101764.53;;;24.87;46.93
71976;BME280;60680;52.182;5.398;2022-07-29T12:48:42;101763.63;;;24.96;46.57
71976;BME280;60680;52.182;5.398;2022-07-29T12:51:10;101767.81;;;24.98;46.75
71976;BME280;60680;52.182;5.398;2022-07-29T12:53:38;101761.78;;;24.96;46.93
71976;BME280;60680;52.182;5.398;2022-07-29T12:56:05;101756.47;;;24.96;47.02
71976;BME280;60680;52.182;5.398;2022-07-29T12:58:46;101754.63;;;24.97;45.77
71976;BME280;60680;52.182;5.398;2022-07-29T13:01:17;101747.06;;;25.02;46.39
71976;BME280;60680;52.182;5.398;2022-07-29T13:03:52;101753.28;;;24.93;46.93
71976;BME280;60680;52.182;5.398;2022-07-29T13:06:40;101752.25;;;25.03;47.18
71976;BME280;60680;52.182;5.398;2022-07-29T13:09:16;101756.19;;;24.99;45.84
71976;BME280;60680;52.182;5.398;2022-07-29T13:11:45;101756.53;;;24.87;46.26
71976;BME280;60680;52.182;5.398;2022-07-29T13:14:35;101753.53;;;24.99;46.42
71976;BME280;60680;52.182;5.398;2022-07-29T13:17:13;101749.25;;;25.07;45.75
71976;BME280;60680;52.182;5.398;2022-07-29T13:19:47;101748.13;;;25.09;45.76
71976;BME280;60680;52.182;5.398;2022-07-29T13:22:16;101750.88;;;25.17;46.47
71976;BME280;60680;52.182;5.398;2022-07-29T13:24:54;101747.38;;;25.17;45.60
71976;BME280;60680;52.182;5.398;2022-07-29T13:27:23;101751.28;;;25.22;45.18
71976;BME280;60680;52.182;5.398;2022-07-29T13:29:50;101746.81;;;25.23;45.71
71976;BME280;60680;52.182;5.398;2022-07-29T13:32:19;101749.50;;;25.13;45.44
71976;BME280;60680;52.182;5.398;2022-07-29T13:34:57;101742.16;;;25.25;45.61
71976;BME280;60680;52.182;5.398;2022-07-29T13:37:25;101747.72;;;25.32;44.85
71976;BME280;60680;52.182;5.398;2022-07-29T13:39:52;101749.28;;;25.25;44.73
71976;BME280;60680;52.182;5.398;2022-07-29T13:42:23;101747.84;;;25.30;45.97
71976;BME280;60680;52.182;5.398;2022-07-29T13:44:50;101746.03;;;25.31;46.29
71976;BME280;60680;52.182;5.398;2022-07-29T13:47:19;101744.44;;;25.38;45.63
71976;BME280;60680;52.182;5.398;2022-07-29T13:49:46;101750.28;;;25.41;44.87
71976;BME280;60680;52.182;5.398;2022-07-29T13:52:14;101748.06;;;25.19;44.25
71976;BME280;60680;52.182;5.398;2022-07-29T13:54:42;101746.47;;;25.26;45.30